Terminal Aerodrome Forecast
Issued by NWS

Current Version | Previous Version | Text Only | Print | Product List | Glossary On
Versions: 1 2 3 4 5 6 7 8 9 10 11 12 13 14 15
000
FTUS45 KTFX 200800 AAA
TAFHLN
TAF AMD
KHLN 200803Z 2008/2106 28015G25KT P6SM SCT040 BKN100
     FM201100 27015G25KT P6SM FEW140
     FM201800 28020G30KT P6SM SKC=

USA.gov is the U.S. government's official web portal to all federal, state and local government web resources and services.